sensor_id;sensor_type;location;lat;lon;timestamp;P1;durP1;ratioP1;P2;durP2;ratioP2
36551;SDS011;22559;54.176;12.102;2023-04-06T00:00:30;7.23;;;5.43;;
36551;SDS011;22559;54.176;12.102;2023-04-06T00:02:56;8.13;;;5.93;;
36551;SDS011;22559;54.176;12.102;2023-04-06T00:05:22;10.30;;;6.17;;
36551;SDS011;22559;54.176;12.102;2023-04-06T00:07:48;10.20;;;6.30;;
36551;SDS011;22559;54.176;12.102;2023-04-06T00:10:15;7.17;;;5.77;;
36551;SDS011;22559;54.176;12.102;2023-04-06T00:12:41;7.37;;;5.70;;
36551;SDS011;22559;54.176;12.102;2023-04-06T00:15:06;8.07;;;5.43;;
36551;SDS011;22559;54.176;12.102;2023-04-06T00:17:32;7.90;;;5.47;;
36551;SDS011;22559;54.176;12.102;2023-04-06T00:19:58;7.23;;;5.50;;
36551;SDS011;22559;54.176;12.102;2023-04-06T00:22:24;8.00;;;5.97;;
36551;SDS011;22559;54.176;12.102;2023-04-06T00:24:49;6.83;;;5.33;;
36551;SDS011;22559;54.176;12.102;2023-04-06T00:27:15;8.33;;;5.63;;
36551;SDS011;22559;54.176;12.102;2023-04-06T00:29:41;6.47;;;5.53;;
36551;SDS011;22559;54.176;12.102;2023-04-06T00:32:07;8.13;;;5.10;;
36551;SDS011;22559;54.176;12.102;2023-04-06T00:34:32;8.37;;;5.83;;
36551;SDS011;22559;54.176;12.102;2023-04-06T00:36:58;7.03;;;5.70;;
36551;SDS011;22559;54.176;12.102;2023-04-06T00:39:24;8.20;;;5.73;;
36551;SDS011;22559;54.176;12.102;2023-04-06T00:41:50;5.80;;;5.20;;
36551;SDS011;22559;54.176;12.102;2023-04-06T00:44:17;7.63;;;5.40;;
36551;SDS011;22559;54.176;12.102;2023-04-06T00:46:44;6.07;;;5.37;;
36551;SDS011;22559;54.176;12.102;2023-04-06T00:49:10;6.13;;;5.53;;
36551;SDS011;22559;54.176;12.102;2023-04-06T00:51:35;6.60;;;5.90;;
36551;SDS011;22559;54.176;12.102;2023-04-06T00:54:01;6.47;;;5.70;;
36551;SDS011;22559;54.176;12.102;2023-04-06T00:56:27;6.53;;;5.37;;
36551;SDS011;22559;54.176;12.102;2023-04-06T00:58:53;6.37;;;5.57;;
36551;SDS011;22559;54.176;12.102;2023-04-06T01:01:19;8.13;;;5.67;;
36551;SDS011;22559;54.176;12.102;2023-04-06T01:03:44;6.47;;;5.30;;
36551;SDS011;22559;54.176;12.102;2023-04-06T01:06:13;8.27;;;5.43;;
36551;SDS011;22559;54.176;12.102;2023-04-06T01:08:39;5.80;;;5.20;;
36551;SDS011;22559;54.176;12.102;2023-04-06T01:11:05;7.17;;;5.50;;
36551;SDS011;22559;54.176;12.102;2023-04-06T01:13:31;6.63;;;5.50;;
36551;SDS011;22559;54.176;12.102;2023-04-06T01:15:56;7.17;;;5.80;;
36551;SDS011;22559;54.176;12.102;2023-04-06T01:18:26;7.13;;;5.40;;
36551;SDS011;22559;54.176;12.102;2023-04-06T01:20:52;5.83;;;5.23;;
36551;SDS011;22559;54.176;12.102;2023-04-06T01:23:18;9.23;;;6.53;;
36551;SDS011;22559;54.176;12.102;2023-04-06T01:25:44;8.10;;;6.20;;
36551;SDS011;22559;54.176;12.102;2023-04-06T01:28:10;8.93;;;5.83;;
36551;SDS011;22559;54.176;12.102;2023-04-06T01:30:35;7.33;;;5.77;;
36551;SDS011;22559;54.176;12.102;2023-04-06T01:33:01;9.43;;;6.03;;
36551;SDS011;22559;54.176;12.102;2023-04-06T01:35:27;7.27;;;6.47;;
36551;SDS011;22559;54.176;12.102;2023-04-06T01:37:53;8.17;;;6.27;;
36551;SDS011;22559;54.176;12.102;2023-04-06T01:40:20;10.63;;;6.40;;
36551;SDS011;22559;54.176;12.102;2023-04-06T01:42:45;7.97;;;6.43;;
36551;SDS011;22559;54.176;12.102;2023-04-06T01:45:11;7.63;;;5.83;;
36551;SDS011;22559;54.176;12.102;2023-04-06T01:47:37;6.70;;;6.00;;
36551;SDS011;22559;54.176;12.102;2023-04-06T01:50:02;8.30;;;5.90;;
36551;SDS011;22559;54.176;12.102;2023-04-06T01:52:31;7.63;;;5.43;;
36551;SDS011;22559;54.176;12.102;2023-04-06T01:54:57;6.73;;;5.70;;
36551;SDS011;22559;54.176;12.102;2023-04-06T01:57:23;8.20;;;5.90;;
36551;SDS011;22559;54.176;12.102;2023-04-06T01:59:50;9.03;;;6.23;;
36551;SDS011;22559;54.176;12.102;2023-04-06T02:02:16;7.67;;;5.47;;
36551;SDS011;22559;54.176;12.102;2023-04-06T02:04:42;6.37;;;5.70;;
36551;SDS011;22559;54.176;12.102;2023-04-06T02:07:08;8.97;;;6.70;;
36551;SDS011;22559;54.176;12.102;2023-04-06T02:09:34;7.90;;;6.30;;
36551;SDS011;22559;54.176;12.102;2023-04-06T02:12:00;7.77;;;6.40;;
36551;SDS011;22559;54.176;12.102;2023-04-06T02:14:26;7.27;;;5.97;;
36551;SDS011;22559;54.176;12.102;2023-04-06T02:16:52;7.90;;;6.60;;
36551;SDS011;22559;54.176;12.102;2023-04-06T02:19:18;9.27;;;6.50;;
36551;SDS011;22559;54.176;12.102;2023-04-06T02:21:44;11.23;;;6.47;;
36551;SDS011;22559;54.176;12.102;2023-04-06T02:24:10;8.90;;;6.50;;
36551;SDS011;22559;54.176;12.102;2023-04-06T02:26:36;9.03;;;6.37;;
36551;SDS011;22559;54.176;12.102;2023-04-06T02:29:01;9.97;;;6.60;;
36551;SDS011;22559;54.176;12.102;2023-04-06T02:31:27;7.33;;;5.73;;
36551;SDS011;22559;54.176;12.102;2023-04-06T02:33:53;9.57;;;5.97;;
36551;SDS011;22559;54.176;12.102;2023-04-06T02:36:19;8.03;;;6.20;;
36551;SDS011;22559;54.176;12.102;2023-04-06T02:38:44;8.63;;;6.10;;
36551;SDS011;22559;54.176;12.102;2023-04-06T02:41:10;9.43;;;6.17;;
36551;SDS011;22559;54.176;12.102;2023-04-06T02:43:36;7.63;;;5.93;;
36551;SDS011;22559;54.176;12.102;2023-04-06T02:46:01;10.70;;;6.70;;
36551;SDS011;22559;54.176;12.102;2023-04-06T02:48:27;10.50;;;6.63;;
36551;SDS011;22559;54.176;12.102;2023-04-06T02:50:53;8.23;;;6.63;;
36551;SDS011;22559;54.176;12.102;2023-04-06T02:53:18;10.07;;;6.90;;
36551;SDS011;22559;54.176;12.102;2023-04-06T02:55:44;8.17;;;6.67;;
36551;SDS011;22559;54.176;12.102;2023-04-06T02:58:10;9.93;;;6.97;;
36551;SDS011;22559;54.176;12.102;2023-04-06T03:00:36;8.40;;;6.90;;
36551;SDS011;22559;54.176;12.102;2023-04-06T03:03:02;9.33;;;6.90;;
36551;SDS011;22559;54.176;12.102;2023-04-06T03:05:28;9.07;;;7.10;;
36551;SDS011;22559;54.176;12.102;2023-04-06T03:07:53;9.93;;;6.83;;
36551;SDS011;22559;54.176;12.102;2023-04-06T03:10:19;9.87;;;6.73;;
36551;SDS011;22559;54.176;12.102;2023-04-06T03:12:45;8.50;;;6.50;;
36551;SDS011;22559;54.176;12.102;2023-04-06T03:15:11;9.47;;;7.13;;
36551;SDS011;22559;54.176;12.102;2023-04-06T03:17:36;8.07;;;6.43;;
36551;SDS011;22559;54.176;12.102;2023-04-06T03:20:02;9.53;;;6.80;;
36551;SDS011;22559;54.176;12.102;2023-04-06T03:22:29;8.23;;;6.57;;
36551;SDS011;22559;54.176;12.102;2023-04-06T03:24:54;11.10;;;7.13;;
36551;SDS011;22559;54.176;12.102;2023-04-06T03:27:20;7.30;;;6.40;;
36551;SDS011;22559;54.176;12.102;2023-04-06T03:29:46;10.37;;;7.13;;
36551;SDS011;22559;54.176;12.102;2023-04-06T03:32:11;9.13;;;6.67;;
36551;SDS011;22559;54.176;12.102;2023-04-06T03:34:37;11.93;;;7.17;;
36551;SDS011;22559;54.176;12.102;2023-04-06T03:37:04;9.63;;;7.03;;
36551;SDS011;22559;54.176;12.102;2023-04-06T03:39:30;9.80;;;7.43;;
36551;SDS011;22559;54.176;12.102;2023-04-06T03:41:56;10.17;;;7.03;;
36551;SDS011;22559;54.176;12.102;2023-04-06T03:44:21;11.33;;;7.90;;
36551;SDS011;22559;54.176;12.102;2023-04-06T03:46:47;12.97;;;7.80;;
36551;SDS011;22559;54.176;12.102;2023-04-06T03:49:14;10.33;;;7.10;;
36551;SDS011;22559;54.176;12.102;2023-04-06T03:51:39;12.30;;;8.37;;
36551;SDS011;22559;54.176;12.102;2023-04-06T03:54:05;13.63;;;8.63;;
36551;SDS011;22559;54.176;12.102;2023-04-06T03:56:31;11.83;;;8.27;;
36551;SDS011;22559;54.176;12.102;2023-04-06T03:58:56;15.47;;;8.43;;
36551;SDS011;22559;54.176;12.102;2023-04-06T04:01:22;12.77;;;8.87;;
36551;SDS011;22559;54.176;12.102;2023-04-06T04:03:48;14.90;;;8.67;;
36551;SDS011;22559;54.176;12.102;2023-04-06T04:06:13;14.63;;;8.23;;
36551;SDS011;22559;54.176;12.102;2023-04-06T04:08:39;21.67;;;9.33;;
36551;SDS011;22559;54.176;12.102;2023-04-06T04:11:05;16.40;;;10.20;;
36551;SDS011;22559;54.176;12.102;2023-04-06T04:13:30;16.50;;;9.97;;
36551;SDS011;22559;54.176;12.102;2023-04-06T04:15:56;15.63;;;9.47;;
36551;SDS011;22559;54.176;12.102;2023-04-06T04:18:22;19.50;;;9.77;;
36551;SDS011;22559;54.176;12.102;2023-04-06T04:20:47;14.23;;;9.33;;
36551;SDS011;22559;54.176;12.102;2023-04-06T04:23:13;19.57;;;8.67;;
36551;SDS011;22559;54.176;12.102;2023-04-06T04:25:39;18.23;;;10.30;;
36551;SDS011;22559;54.176;12.102;2023-04-06T04:28:05;21.00;;;10.33;;
36551;SDS011;22559;54.176;12.102;2023-04-06T04:30:31;19.03;;;10.60;;
36551;SDS011;22559;54.176;12.102;2023-04-06T04:32:57;16.07;;;10.03;;
36551;SDS011;22559;54.176;12.102;2023-04-06T04:35:22;18.90;;;10.37;;
36551;SDS011;22559;54.176;12.102;2023-04-06T04:37:48;16.80;;;10.67;;
36551;SDS011;22559;54.176;12.102;2023-04-06T04:40:14;15.67;;;9.90;;
36551;SDS011;22559;54.176;12.102;2023-04-06T04:42:40;15.20;;;10.40;;
36551;SDS011;22559;54.176;12.102;2023-04-06T04:45:06;14.87;;;9.67;;
36551;SDS011;22559;54.176;12.102;2023-04-06T04:47:32;17.53;;;10.07;;
36551;SDS011;22559;54.176;12.102;2023-04-06T04:49:58;15.77;;;10.30;;
36551;SDS011;22559;54.176;12.102;2023-04-06T04:52:23;13.03;;;9.27;;
36551;SDS011;22559;54.176;12.102;2023-04-06T04:54:49;16.37;;;10.40;;
36551;SDS011;22559;54.176;12.102;2023-04-06T04:57:15;19.33;;;10.03;;
36551;SDS011;22559;54.176;12.102;2023-04-06T04:59:42;14.93;;;9.73;;
36551;SDS011;22559;54.176;12.102;2023-04-06T05:02:08;13.53;;;9.80;;
36551;SDS011;22559;54.176;12.102;2023-04-06T05:04:35;12.53;;;9.00;;
36551;SDS011;22559;54.176;12.102;2023-04-06T05:07:07;13.67;;;9.60;;
36551;SDS011;22559;54.176;12.102;2023-04-06T05:09:33;17.33;;;10.27;;
36551;SDS011;22559;54.176;12.102;2023-04-06T05:11:59;16.07;;;9.83;;
36551;SDS011;22559;54.176;12.102;2023-04-06T05:14:26;14.03;;;9.83;;
36551;SDS011;22559;54.176;12.102;2023-04-06T05:16:53;15.53;;;9.63;;
36551;SDS011;22559;54.176;12.102;2023-04-06T05:19:19;13.17;;;9.43;;
36551;SDS011;22559;54.176;12.102;2023-04-06T05:21:44;17.17;;;9.33;;
36551;SDS011;22559;54.176;12.102;2023-04-06T05:24:10;16.80;;;10.10;;
36551;SDS011;22559;54.176;12.102;2023-04-06T05:26:36;12.03;;;9.57;;
36551;SDS011;22559;54.176;12.102;2023-04-06T05:29:02;14.73;;;9.97;;
36551;SDS011;22559;54.176;12.102;2023-04-06T05:31:28;15.50;;;9.30;;
36551;SDS011;22559;54.176;12.102;2023-04-06T05:33:54;15.20;;;9.70;;
36551;SDS011;22559;54.176;12.102;2023-04-06T05:36:21;15.97;;;9.00;;
36551;SDS011;22559;54.176;12.102;2023-04-06T05:38:47;16.67;;;10.03;;
36551;SDS011;22559;54.176;12.102;2023-04-06T05:41:13;15.03;;;9.50;;
36551;SDS011;22559;54.176;12.102;2023-04-06T05:43:38;17.20;;;10.47;;
36551;SDS011;22559;54.176;12.102;2023-04-06T05:46:04;17.80;;;11.07;;
36551;SDS011;22559;54.176;12.102;2023-04-06T05:48:30;15.57;;;10.87;;
36551;SDS011;22559;54.176;12.102;2023-04-06T05:50:55;14.73;;;10.37;;
36551;SDS011;22559;54.176;12.102;2023-04-06T05:53:21;15.13;;;10.20;;
36551;SDS011;22559;54.176;12.102;2023-04-06T05:55:47;15.97;;;10.47;;
36551;SDS011;22559;54.176;12.102;2023-04-06T05:58:13;15.97;;;10.20;;
36551;SDS011;22559;54.176;12.102;2023-04-06T06:00:38;16.77;;;9.73;;
36551;SDS011;22559;54.176;12.102;2023-04-06T06:03:04;12.67;;;10.30;;
36551;SDS011;22559;54.176;12.102;2023-04-06T06:05:31;10.97;;;9.00;;
36551;SDS011;22559;54.176;12.102;2023-04-06T06:07:56;13.53;;;9.83;;
36551;SDS011;22559;54.176;12.102;2023-04-06T06:10:22;15.17;;;10.13;;
36551;SDS011;22559;54.176;12.102;2023-04-06T06:12:48;12.53;;;9.07;;
36551;SDS011;22559;54.176;12.102;2023-04-06T06:15:13;14.13;;;9.30;;
36551;SDS011;22559;54.176;12.102;2023-04-06T06:17:39;13.50;;;10.23;;
36551;SDS011;22559;54.176;12.102;2023-04-06T06:20:06;12.97;;;9.30;;
36551;SDS011;22559;54.176;12.102;2023-04-06T06:22:32;13.00;;;9.53;;
36551;SDS011;22559;54.176;12.102;2023-04-06T06:24:58;12.33;;;8.73;;
36551;SDS011;22559;54.176;12.102;2023-04-06T06:27:23;13.33;;;9.47;;
36551;SDS011;22559;54.176;12.102;2023-04-06T06:29:49;10.43;;;8.47;;
36551;SDS011;22559;54.176;12.102;2023-04-06T06:32:15;15.10;;;8.80;;
36551;SDS011;22559;54.176;12.102;2023-04-06T06:34:41;13.60;;;8.43;;
36551;SDS011;22559;54.176;12.102;2023-04-06T06:37:06;10.33;;;7.93;;
36551;SDS011;22559;54.176;12.102;2023-04-06T06:39:32;10.23;;;8.17;;
36551;SDS011;22559;54.176;12.102;2023-04-06T06:41:58;11.33;;;8.00;;
36551;SDS011;22559;54.176;12.102;2023-04-06T06:44:26;10.23;;;8.10;;
36551;SDS011;22559;54.176;12.102;2023-04-06T06:46:52;10.97;;;8.63;;
36551;SDS011;22559;54.176;12.102;2023-04-06T06:49:18;11.43;;;8.67;;
36551;SDS011;22559;54.176;12.102;2023-04-06T06:51:44;14.10;;;8.23;;
36551;SDS011;22559;54.176;12.102;2023-04-06T06:54:11;11.50;;;7.80;;
36551;SDS011;22559;54.176;12.102;2023-04-06T06:56:37;11.47;;;8.23;;
36551;SDS011;22559;54.176;12.102;2023-04-06T06:59:03;10.53;;;7.70;;
36551;SDS011;22559;54.176;12.102;2023-04-06T07:01:30;9.73;;;7.70;;
36551;SDS011;22559;54.176;12.102;2023-04-06T07:03:57;10.17;;;7.13;;
36551;SDS011;22559;54.176;12.102;2023-04-06T07:06:22;8.60;;;7.07;;
36551;SDS011;22559;54.176;12.102;2023-04-06T07:08:48;16.20;;;8.30;;
36551;SDS011;22559;54.176;12.102;2023-04-06T07:11:14;11.07;;;7.33;;
36551;SDS011;22559;54.176;12.102;2023-04-06T07:13:39;8.83;;;6.93;;
36551;SDS011;22559;54.176;12.102;2023-04-06T07:16:05;10.17;;;7.47;;
36551;SDS011;22559;54.176;12.102;2023-04-06T07:18:31;46.57;;;26.47;;
36551;SDS011;22559;54.176;12.102;2023-04-06T07:20:57;16.63;;;7.33;;
36551;SDS011;22559;54.176;12.102;2023-04-06T07:23:22;10.97;;;7.50;;
36551;SDS011;22559;54.176;12.102;2023-04-06T07:25:48;10.03;;;7.13;;
36551;SDS011;22559;54.176;12.102;2023-04-06T07:28:16;10.53;;;8.20;;
36551;SDS011;22559;54.176;12.102;2023-04-06T07:30:41;10.60;;;7.83;;
36551;SDS011;22559;54.176;12.102;2023-04-06T07:33:07;8.77;;;7.20;;
36551;SDS011;22559;54.176;12.102;2023-04-06T07:35:33;9.37;;;6.57;;
36551;SDS011;22559;54.176;12.102;2023-04-06T07:37:59;10.80;;;6.70;;
36551;SDS011;22559;54.176;12.102;2023-04-06T07:40:25;8.10;;;6.50;;
36551;SDS011;22559;54.176;12.102;2023-04-06T07:42:51;7.67;;;6.80;;
36551;SDS011;22559;54.176;12.102;2023-04-06T07:45:17;7.83;;;6.60;;
36551;SDS011;22559;54.176;12.102;2023-04-06T07:47:43;12.33;;;7.00;;
36551;SDS011;22559;54.176;12.102;2023-04-06T07:50:09;8.67;;;6.70;;
36551;SDS011;22559;54.176;12.102;2023-04-06T07:52:35;11.40;;;6.50;;
36551;SDS011;22559;54.176;12.102;2023-04-06T07:55:01;15.93;;;10.33;;
36551;SDS011;22559;54.176;12.102;2023-04-06T07:57:27;8.70;;;6.70;;
36551;SDS011;22559;54.176;12.102;2023-04-06T07:59:52;16.43;;;10.97;;
36551;SDS011;22559;54.176;12.102;2023-04-06T08:02:18;12.83;;;9.80;;
36551;SDS011;22559;54.176;12.102;2023-04-06T08:04:44;7.83;;;6.60;;
36551;SDS011;22559;54.176;12.102;2023-04-06T08:07:09;9.60;;;6.33;;
36551;SDS011;22559;54.176;12.102;2023-04-06T08:09:35;10.43;;;8.37;;
36551;SDS011;22559;54.176;12.102;2023-04-06T08:12:01;10.60;;;8.20;;
36551;SDS011;22559;54.176;12.102;2023-04-06T08:14:27;10.67;;;7.40;;
36551;SDS011;22559;54.176;12.102;2023-04-06T08:16:52;9.27;;;7.00;;
36551;SDS011;22559;54.176;12.102;2023-04-06T08:19:18;10.23;;;6.97;;
36551;SDS011;22559;54.176;12.102;2023-04-06T08:21:47;10.97;;;8.13;;
36551;SDS011;22559;54.176;12.102;2023-04-06T08:24:13;12.73;;;7.97;;
36551;SDS011;22559;54.176;12.102;2023-04-06T08:26:39;8.53;;;6.57;;
36551;SDS011;22559;54.176;12.102;2023-04-06T08:29:05;10.63;;;7.00;;
36551;SDS011;22559;54.176;12.102;2023-04-06T08:31:33;9.23;;;7.10;;
36551;SDS011;22559;54.176;12.102;2023-04-06T08:33:59;11.57;;;6.93;;
36551;SDS011;22559;54.176;12.102;2023-04-06T08:36:25;10.53;;;7.63;;
36551;SDS011;22559;54.176;12.102;2023-04-06T08:38:51;9.80;;;7.57;;
36551;SDS011;22559;54.176;12.102;2023-04-06T08:41:17;10.20;;;7.47;;
36551;SDS011;22559;54.176;12.102;2023-04-06T08:43:46;7.63;;;6.83;;
36551;SDS011;22559;54.176;12.102;2023-04-06T08:46:14;10.77;;;7.10;;
36551;SDS011;22559;54.176;12.102;2023-04-06T08:48:40;10.87;;;7.67;;
36551;SDS011;22559;54.176;12.102;2023-04-06T08:51:08;9.07;;;6.67;;
36551;SDS011;22559;54.176;12.102;2023-04-06T08:53:34;9.47;;;7.40;;
36551;SDS011;22559;54.176;12.102;2023-04-06T08:56:00;10.43;;;7.00;;
36551;SDS011;22559;54.176;12.102;2023-04-06T08:58:28;9.30;;;7.10;;
36551;SDS011;22559;54.176;12.102;2023-04-06T09:00:58;8.03;;;6.53;;
36551;SDS011;22559;54.176;12.102;2023-04-06T09:03:24;9.53;;;6.67;;
36551;SDS011;22559;54.176;12.102;2023-04-06T09:05:52;11.47;;;6.30;;
36551;SDS011;22559;54.176;12.102;2023-04-06T09:08:18;8.40;;;6.83;;
36551;SDS011;22559;54.176;12.102;2023-04-06T09:10:44;9.40;;;6.60;;
36551;SDS011;22559;54.176;12.102;2023-04-06T09:13:10;7.57;;;6.00;;
36551;SDS011;22559;54.176;12.102;2023-04-06T09:15:37;6.33;;;5.77;;
36551;SDS011;22559;54.176;12.102;2023-04-06T09:18:02;6.40;;;5.80;;
36551;SDS011;22559;54.176;12.102;2023-04-06T09:20:28;7.73;;;5.93;;
36551;SDS011;22559;54.176;12.102;2023-04-06T09:22:54;14.37;;;8.73;;
36551;SDS011;22559;54.176;12.102;2023-04-06T09:25:21;8.47;;;6.27;;
36551;SDS011;22559;54.176;12.102;2023-04-06T09:27:48;10.03;;;6.53;;
36551;SDS011;22559;54.176;12.102;2023-04-06T09:30:23;8.80;;;7.10;;
36551;SDS011;22559;54.176;12.102;2023-04-06T09:35:17;9.03;;;6.17;;
36551;SDS011;22559;54.176;12.102;2023-04-06T09:37:45;7.23;;;5.87;;
36551;SDS011;22559;54.176;12.102;2023-04-06T09:40:12;6.87;;;5.97;;
36551;SDS011;22559;54.176;12.102;2023-04-06T09:42:41;8.47;;;6.20;;
36551;SDS011;22559;54.176;12.102;2023-04-06T09:45:07;6.53;;;5.93;;
36551;SDS011;22559;54.176;12.102;2023-04-06T09:47:34;7.07;;;5.47;;
36551;SDS011;22559;54.176;12.102;2023-04-06T09:50:02;14.43;;;9.33;;
36551;SDS011;22559;54.176;12.102;2023-04-06T09:52:37;13.47;;;11.37;;
36551;SDS011;22559;54.176;12.102;2023-04-06T09:55:28;9.00;;;6.07;;
36551;SDS011;22559;54.176;12.102;2023-04-06T09:58:06;7.27;;;5.83;;
36551;SDS011;22559;54.176;12.102;2023-04-06T10:00:42;7.23;;;5.40;;
36551;SDS011;22559;54.176;12.102;2023-04-06T10:03:28;6.77;;;5.37;;
36551;SDS011;22559;54.176;12.102;2023-04-06T10:06:27;7.50;;;5.87;;
36551;SDS011;22559;54.176;12.102;2023-04-06T10:08:57;5.93;;;5.37;;
36551;SDS011;22559;54.176;12.102;2023-04-06T10:11:24;8.30;;;5.90;;
36551;SDS011;22559;54.176;12.102;2023-04-06T10:13:50;5.80;;;5.27;;
36551;SDS011;22559;54.176;12.102;2023-04-06T10:16:16;7.70;;;5.27;;
36551;SDS011;22559;54.176;12.102;2023-04-06T10:18:45;6.37;;;5.17;;
36551;SDS011;22559;54.176;12.102;2023-04-06T10:21:16;5.77;;;5.27;;
36551;SDS011;22559;54.176;12.102;2023-04-06T10:23:52;5.37;;;4.87;;
36551;SDS011;22559;54.176;12.102;2023-04-06T10:26:22;5.77;;;4.10;;
36551;SDS011;22559;54.176;12.102;2023-04-06T10:28:49;4.80;;;4.30;;
36551;SDS011;22559;54.176;12.102;2023-04-06T10:31:15;5.10;;;4.10;;
36551;SDS011;22559;54.176;12.102;2023-04-06T10:33:55;6.23;;;4.57;;
36551;SDS011;22559;54.176;12.102;2023-04-06T10:36:26;9.90;;;7.63;;
36551;SDS011;22559;54.176;12.102;2023-04-06T10:38:59;2.93;;;2.73;;
36551;SDS011;22559;54.176;12.102;2023-04-06T10:41:41;2.93;;;2.73;;
36551;SDS011;22559;54.176;12.102;2023-04-06T10:44:07;4.37;;;3.63;;
36551;SDS011;22559;54.176;12.102;2023-04-06T10:46:41;3.40;;;2.87;;
36551;SDS011;22559;54.176;12.102;2023-04-06T10:49:17;5.60;;;3.03;;
36551;SDS011;22559;54.176;12.102;2023-04-06T10:51:43;3.33;;;3.03;;
36551;SDS011;22559;54.176;12.102;2023-04-06T10:54:09;3.20;;;3.00;;
36551;SDS011;22559;54.176;12.102;2023-04-06T10:56:37;3.70;;;3.20;;
36551;SDS011;22559;54.176;12.102;2023-04-06T10:59:04;3.27;;;3.00;;
36551;SDS011;22559;54.176;12.102;2023-04-06T11:01:31;3.23;;;2.93;;
36551;SDS011;22559;54.176;12.102;2023-04-06T11:03:57;3.90;;;3.30;;
36551;SDS011;22559;54.176;12.102;2023-04-06T11:06:26;3.07;;;2.80;;
36551;SDS011;22559;54.176;12.102;2023-04-06T11:08:55;3.67;;;3.37;;
36551;SDS011;22559;54.176;12.102;2023-04-06T11:11:22;3.67;;;3.00;;
36551;SDS011;22559;54.176;12.102;2023-04-06T11:13:55;3.63;;;3.30;;
36551;SDS011;22559;54.176;12.102;2023-04-06T11:16:29;5.57;;;3.10;;
36551;SDS011;22559;54.176;12.102;2023-04-06T11:19:00;5.20;;;3.23;;
36551;SDS011;22559;54.176;12.102;2023-04-06T11:24:25;4.40;;;3.20;;
36551;SDS011;22559;54.176;12.102;2023-04-06T11:29:29;4.43;;;3.10;;
36551;SDS011;22559;54.176;12.102;2023-04-06T11:31:59;3.10;;;2.87;;
36551;SDS011;22559;54.176;12.102;2023-04-06T11:34:34;3.37;;;2.97;;
36551;SDS011;22559;54.176;12.102;2023-04-06T11:37:03;3.27;;;3.07;;
36551;SDS011;22559;54.176;12.102;2023-04-06T11:39:39;4.50;;;3.10;;
36551;SDS011;22559;54.176;12.102;2023-04-06T11:42:25;3.93;;;2.73;;
36551;SDS011;22559;54.176;12.102;2023-04-06T11:44:56;3.17;;;2.87;;
36551;SDS011;22559;54.176;12.102;2023-04-06T11:47:29;3.10;;;2.90;;
36551;SDS011;22559;54.176;12.102;2023-04-06T11:50:04;3.93;;;3.27;;
36551;SDS011;22559;54.176;12.102;2023-04-06T11:52:32;6.40;;;3.20;;
36551;SDS011;22559;54.176;12.102;2023-04-06T11:54:57;3.83;;;2.87;;
36551;SDS011;22559;54.176;12.102;2023-04-06T11:57:23;3.73;;;3.27;;
36551;SDS011;22559;54.176;12.102;2023-04-06T11:59:50;3.70;;;3.40;;
36551;SDS011;22559;54.176;12.102;2023-04-06T12:02:16;3.60;;;3.10;;
36551;SDS011;22559;54.176;12.102;2023-04-06T12:04:43;3.70;;;3.40;;
36551;SDS011;22559;54.176;12.102;2023-04-06T12:07:09;3.37;;;3.17;;
36551;SDS011;22559;54.176;12.102;2023-04-06T12:09:35;3.60;;;3.30;;
36551;SDS011;22559;54.176;12.102;2023-04-06T12:12:02;4.60;;;3.40;;
36551;SDS011;22559;54.176;12.102;2023-04-06T12:14:28;4.63;;;3.40;;
36551;SDS011;22559;54.176;12.102;2023-04-06T12:16:55;3.67;;;3.37;;
36551;SDS011;22559;54.176;12.102;2023-04-06T12:19:22;4.77;;;3.63;;
36551;SDS011;22559;54.176;12.102;2023-04-06T12:21:50;4.43;;;3.47;;
36551;SDS011;22559;54.176;12.102;2023-04-06T12:24:22;4.00;;;3.60;;
36551;SDS011;22559;54.176;12.102;2023-04-06T12:26:48;4.23;;;3.60;;
36551;SDS011;22559;54.176;12.102;2023-04-06T12:29:14;4.10;;;3.77;;
36551;SDS011;22559;54.176;12.102;2023-04-06T12:31:40;4.20;;;3.70;;
36551;SDS011;22559;54.176;12.102;2023-04-06T12:34:07;4.07;;;3.77;;
36551;SDS011;22559;54.176;12.102;2023-04-06T12:36:33;4.15;;;3.40;;
36551;SDS011;22559;54.176;12.102;2023-04-06T12:38:59;4.17;;;3.43;;
36551;SDS011;22559;54.176;12.102;2023-04-06T12:41:26;8.68;;;7.80;;
36551;SDS011;22559;54.176;12.102;2023-04-06T12:43:52;4.40;;;3.50;;
36551;SDS011;22559;54.176;12.102;2023-04-06T12:46:21;6.95;;;5.90;;
36551;SDS011;22559;54.176;12.102;2023-04-06T12:48:47;4.43;;;3.63;;
36551;SDS011;22559;54.176;12.102;2023-04-06T12:51:13;5.37;;;3.37;;
36551;SDS011;22559;54.176;12.102;2023-04-06T12:53:39;3.87;;;3.57;;
36551;SDS011;22559;54.176;12.102;2023-04-06T12:56:12;3.73;;;3.43;;
36551;SDS011;22559;54.176;12.102;2023-04-06T12:58:39;3.37;;;3.07;;
36551;SDS011;22559;54.176;12.102;2023-04-06T13:01:06;4.53;;;3.80;;
36551;SDS011;22559;54.176;12.102;2023-04-06T13:03:33;3.80;;;3.47;;
36551;SDS011;22559;54.176;12.102;2023-04-06T13:05:59;3.30;;;3.00;;
36551;SDS011;22559;54.176;12.102;2023-04-06T13:08:25;4.72;;;3.25;;
36551;SDS011;22559;54.176;12.102;2023-04-06T13:10:52;3.63;;;2.90;;
36551;SDS011;22559;54.176;12.102;2023-04-06T13:13:22;3.47;;;3.17;;
36551;SDS011;22559;54.176;12.102;2023-04-06T13:15:49;4.03;;;3.40;;
36551;SDS011;22559;54.176;12.102;2023-04-06T13:18:16;3.60;;;3.00;;
36551;SDS011;22559;54.176;12.102;2023-04-06T13:20:42;5.27;;;3.30;;
36551;SDS011;22559;54.176;12.102;2023-04-06T13:23:07;3.50;;;3.20;;
36551;SDS011;22559;54.176;12.102;2023-04-06T13:25:34;8.27;;;6.10;;
36551;SDS011;22559;54.176;12.102;2023-04-06T13:28:00;3.50;;;3.20;;
36551;SDS011;22559;54.176;12.102;2023-04-06T13:30:26;3.13;;;2.90;;
36551;SDS011;22559;54.176;12.102;2023-04-06T13:32:52;3.00;;;2.87;;
36551;SDS011;22559;54.176;12.102;2023-04-06T13:35:18;2.87;;;2.67;;
36551;SDS011;22559;54.176;12.102;2023-04-06T13:37:43;4.37;;;3.03;;
36551;SDS011;22559;54.176;12.102;2023-04-06T13:40:09;4.47;;;3.33;;
36551;SDS011;22559;54.176;12.102;2023-04-06T13:42:36;3.80;;;3.20;;
36551;SDS011;22559;54.176;12.102;2023-04-06T13:45:03;3.33;;;3.03;;
36551;SDS011;22559;54.176;12.102;2023-04-06T13:47:32;5.00;;;3.17;;
36551;SDS011;22559;54.176;12.102;2023-04-06T13:49:58;3.27;;;2.97;;
36551;SDS011;22559;54.176;12.102;2023-04-06T13:52:23;3.23;;;2.97;;
36551;SDS011;22559;54.176;12.102;2023-04-06T13:54:49;3.47;;;3.17;;
36551;SDS011;22559;54.176;12.102;2023-04-06T13:57:15;4.33;;;3.40;;
36551;SDS011;22559;54.176;12.102;2023-04-06T13:59:41;3.73;;;3.23;;
36551;SDS011;22559;54.176;12.102;2023-04-06T14:02:08;3.13;;;2.93;;
36551;SDS011;22559;54.176;12.102;2023-04-06T14:04:35;3.17;;;2.97;;
36551;SDS011;22559;54.176;12.102;2023-04-06T14:07:01;3.53;;;3.23;;
36551;SDS011;22559;54.176;12.102;2023-04-06T14:09:28;3.47;;;3.17;;
36551;SDS011;22559;54.176;12.102;2023-04-06T14:11:54;3.42;;;3.10;;
36551;SDS011;22559;54.176;12.102;2023-04-06T14:14:20;3.30;;;3.00;;
36551;SDS011;22559;54.176;12.102;2023-04-06T14:16:46;5.40;;;3.20;;
36551;SDS011;22559;54.176;12.102;2023-04-06T14:19:14;4.03;;;3.57;;
36551;SDS011;22559;54.176;12.102;2023-04-06T14:21:43;4.30;;;3.37;;
36551;SDS011;22559;54.176;12.102;2023-04-06T14:24:10;3.27;;;3.00;;
36551;SDS011;22559;54.176;12.102;2023-04-06T14:26:36;3.27;;;3.07;;
36551;SDS011;22559;54.176;12.102;2023-04-06T14:29:05;3.40;;;2.83;;
36551;SDS011;22559;54.176;12.102;2023-04-06T14:31:31;3.27;;;2.97;;
36551;SDS011;22559;54.176;12.102;2023-04-06T14:34:00;3.53;;;2.83;;